»·PEaware :: AAL343 KSLC-KGJT

AAL343 :: KSLC-KGJT

FLIGHT INFORMATION

Flight Status: Arrived
Operator:
American Airlines
More flights by this operator :: More flights under this callsign
Pilot: James W. (12414)
Aircraft: BOEING 737-800
(B738)
More flights by this aircraft type
Origin: KSLC Salt Lake City Intl
United States
Destination: KGJT Walker
United States
More flights between these airports :: More routes between these airports
Route: NSIGN5 MTU JNC
File this flight plan on PilotEdge
Remarks:
Altitude:
(Current/Filed)
290ft
Speed:
(Current/Filed)
450kts
Departed: 08-Oct-17 06:12 PM
Arrived: 08-Oct-17 06:58 PM
Distance/Time
Traveled:
187nm/0:46
Distance/Time
To Go:
Arrived

Flight Plot

Page will automatically refresh every two minutes.

Flight plan parsing failed; only flown route is shown


Map Options




Map Legend


Flown Route
Filed Route
Departure Airport
Arrival Airport
Navaid (VOR, NDB)
Fix

Horizontal Profiles

Position Reports

Time Latitude Longitude Heading Altitude Ground
Speed
08-Oct-17 17:55 40.785184 -111.977971 351 4234ft 0kts
08-Oct-17 17:56 40.785184 -111.977971 351 4234ft 0kts
08-Oct-17 17:57 40.785184 -111.977971 351 4234ft 0kts
08-Oct-17 17:58 40.785184 -111.977971 351 4234ft 0kts
08-Oct-17 17:59 40.785184 -111.977971 351 4234ft 0kts
08-Oct-17 18:00 40.785184 -111.977971 351 4234ft 0kts
08-Oct-17 18:01 40.785184 -111.977971 351 4234ft 0kts
08-Oct-17 18:02 40.785184 -111.977971 351 4234ft 0kts
08-Oct-17 18:03 40.785184 -111.977971 351 4234ft 0kts
08-Oct-17 18:04 40.785184 -111.977971 351 4234ft 0kts
08-Oct-17 18:05 40.785184 -111.977971 351 4234ft 0kts
08-Oct-17 18:06 40.785184 -111.977971 351 4234ft 0kts
08-Oct-17 18:07 40.785184 -111.977971 351 4235ft 0kts
08-Oct-17 18:08 40.784855 -111.977926 22 4235ft 0kts
08-Oct-17 18:09 40.784802 -111.978107 96 4235ft 0kts
08-Oct-17 18:10 40.784802 -111.978107 96 4235ft 0kts
08-Oct-17 18:11 40.784705 -111.977245 107 4234ft 7kts
08-Oct-17 18:12 40.781540 -111.976140 174 4235ft 11kts
08-Oct-17 18:13 40.778087 -111.975674 175 4234ft 16kts
08-Oct-17 18:14 40.774534 -111.974548 106 4234ft 0kts
08-Oct-17 18:15 40.774663 -111.973765 67 4235ft 9kts
08-Oct-17 18:16 40.791016 -111.975025 355 4237ft 174kts
08-Oct-17 18:17 40.857884 -111.983861 352 4825ft 265kts
08-Oct-17 18:18 40.927892 -111.993465 354 7330ft 277kts
08-Oct-17 18:19 41.005516 -112.004191 353 10081ft 289kts
08-Oct-17 18:20 41.085874 -112.002605 26 12779ft 308kts
08-Oct-17 18:21 41.141068 -111.920177 72 15451ft 322kts
08-Oct-17 18:22 41.130587 -111.802431 117 17552ft 352kts
08-Oct-17 18:23 41.042078 -111.732286 172 18332ft 419kts
08-Oct-17 18:24 40.928255 -111.694818 162 21071ft 431kts
08-Oct-17 18:25 40.816018 -111.649506 162 23403ft 446kts
08-Oct-17 18:26 40.717372 -111.557154 119 25504ft 460kts
08-Oct-17 18:27 40.687142 -111.393845 106 27367ft 473kts
08-Oct-17 18:28 40.642472 -111.233232 111 28985ft 485kts
08-Oct-17 18:29 40.593817 -111.068284 111 28998ft 486kts
08-Oct-17 18:30 40.545796 -110.904415 111 28994ft 480kts
08-Oct-17 18:31 40.499107 -110.744893 110 29001ft 473kts
08-Oct-17 18:32 40.452578 -110.584653 110 28999ft 472kts
08-Oct-17 18:33 40.397453 -110.431221 131 28991ft 472kts
08-Oct-17 18:34 40.307357 -110.327207 136 29003ft 472kts
08-Oct-17 18:35 40.213584 -110.209111 136 29000ft 472kts
08-Oct-17 18:36 40.122512 -110.087489 129 28996ft 472kts
08-Oct-17 18:37 40.038116 -109.958868 130 27802ft 463kts
08-Oct-17 18:38 39.957666 -109.837597 130 25401ft 430kts
08-Oct-17 18:39 39.883213 -109.725421 130 23058ft 405kts
08-Oct-17 18:40 39.811601 -109.617310 130 20736ft 391kts
08-Oct-17 18:41 39.736317 -109.520772 141 18432ft 378kts
08-Oct-17 18:42 39.656950 -109.436416 139 16146ft 365kts
08-Oct-17 18:43 39.583436 -109.356623 139 15113ft 315kts
08-Oct-17 18:44 39.520569 -109.288410 140 15169ft 300kts
08-Oct-17 18:45 39.456626 -109.220489 139 15167ft 299kts
08-Oct-17 18:46 39.393929 -109.150665 139 15164ft 299kts
08-Oct-17 18:47 39.331119 -109.080591 139 15164ft 299kts
08-Oct-17 18:48 39.268314 -109.010483 139 15164ft 299kts
08-Oct-17 18:49 39.204158 -108.942718 141 15120ft 301kts
08-Oct-17 18:50 39.137642 -108.873674 141 12969ft 315kts
08-Oct-17 18:51 39.069437 -108.802779 139 10687ft 319kts
08-Oct-17 18:52 39.031847 -108.710095 112 10115ft 267kts
08-Oct-17 18:53 39.008278 -108.637076 112 10028ft 208kts
08-Oct-17 18:54 38.985978 -108.568978 112 9369ft 206kts
08-Oct-17 18:55 38.963850 -108.501576 112 8484ft 203kts
08-Oct-17 18:56 38.944034 -108.434930 85 7454ft 202kts
08-Oct-17 18:57 38.988604 -108.403882 12 7104ft 192kts
08-Oct-17 18:58 39.034841 -108.399917 354 6879ft 167kts
08-Oct-17 18:59 39.072879 -108.428434 306 6160ft 158kts
08-Oct-17 19:00 39.096604 -108.476453 308 5565ft 157kts
08-Oct-17 19:01 39.122585 -108.521825 305 4865ft 135kts
08-Oct-17 19:02 39.129678 -108.535988 223 4864ft 7kts
08-Oct-17 19:03 39.126809 -108.531828 126 4864ft 21kts

Navigation Log

Ident Type
Flight plan parsing failed, navigation log unavailable